Aérodrome :
LOGIN :

S'inscrire | Disclaimer

   EN    FR    IT 

 










Légende :    VFR   VFR Marginal   IFR   IFR Intensif   IFR Très Intensif
Visi : 
Plafond : 
>= 8 km
>= 3000ft
5 à 8 km
1000 à 3000 ft
1500m à 5 km
500 à 1000 ft
800 à 1500m
200 à 500 ft
< 800m
< 200 ft
Symboles :   Orages  Brouillard  Fortes neiges  Fortes précipitations  Vent > 20 kt
SIGMETs :   Divers  Orages  Givrage  Turbulence  Onde Orograph.  Cendres Volcan.






- Altitude de l'aérodrome : 160 ft
- Code IATA : LRT


LFRH - Lorient Lann Bihoue

DERNIER METAR :
  • 051700Z AUTO 29010KT 9999 FEW027/// BKN036/// BKN045/// ///TCU 08/04 Q0991 TEMPO 30015G27KT 4500 SHRA BKN015CB

METARs EXPIRÉS :
  • 051630Z AUTO 28009KT 9999 FEW027 08/03 Q0991 TEMPO 30015G27KT 4500 SHRA BKN015CB
  • 051600Z AUTO 29010KT 270V330 9999 FEW029 08/03 Q0991 TEMPO 30015G27KT 4500 SHRA BKN015CB
  • 051530Z AUTO 29012KT 260V320 9999 SCT028 BKN034 BKN044 09/04 Q0991 TEMPO 30015G27KT 4500 SHRA BKN015CB
  • 051500Z AUTO 28012G25KT 9999 BKN030 BKN036 10/04 Q0990 TEMPO 4500 SHRA BKN015CB
  • 051430Z AUTO 29015KT 9999 BKN029 BKN039 BKN045 10/04 Q0990 TEMPO 30015G27KT 4500 SHRA BKN015CB

TAF TAF LFRH
Valide du 05 à 12h jusqu'au 06 à 12h UTC


051100Z 0512/0612 29015KT 9999 SCT025
TEMPO 0512/0601 30015G27KT 4500 SHRA BKN015CB
BECMG 0517/0519 30015G25KT
BECMG 0600/0603 33015KT



MET'MAP, la Météo Aéronautique d'un coup d'oeil ! - Copyright ORBIFLY Décembre 2007 - Disclaimer

ORBIFLY MET'MAP TEAM :

Programmation & Développement : Alexandra Zaïnal
Sur une idée originale de : Baudouin d'Aumeries
Assistance à la programmation : Marc-Olivier Méhu
Soutien technique & logistique : Manuel Goepfert

Contact : metmap@orbifly.com




SOURCES & CREDITS :

   NOAA